createdAt,value
2018-09-20T00:00:43.751Z,0.00
2018-09-20T00:02:37.083Z,0.00
2018-09-20T00:03:37.030Z,0.00
2018-09-20T00:05:30.344Z,0.00
2018-09-20T00:06:30.314Z,0.00
2018-09-20T00:08:23.635Z,0.00
2018-09-20T00:09:23.592Z,0.00
2018-09-20T00:11:16.915Z,0.00
2018-09-20T00:12:16.879Z,0.00
2018-09-20T00:14:10.205Z,0.00
2018-09-20T00:15:10.159Z,0.00
2018-09-20T00:17:03.479Z,0.00
2018-09-20T00:18:03.426Z,0.00
2018-09-20T00:19:56.744Z,0.00
2018-09-20T00:20:56.706Z,0.00
2018-09-20T00:22:50.029Z,0.00
2018-09-20T00:23:49.984Z,0.00
2018-09-20T00:25:43.295Z,0.00
2018-09-20T00:26:43.261Z,0.00
2018-09-20T00:28:36.658Z,0.00
2018-09-20T00:29:36.537Z,0.00
2018-09-20T00:31:29.880Z,0.00
2018-09-20T00:32:29.836Z,0.00
2018-09-20T00:34:23.159Z,0.00
2018-09-20T00:35:23.109Z,0.00
2018-09-20T00:37:16.424Z,0.00
2018-09-20T00:38:16.409Z,0.00
2018-09-20T00:40:09.704Z,0.00
2018-09-20T00:41:09.664Z,0.00
2018-09-20T00:43:02.989Z,0.00
2018-09-20T00:44:02.936Z,0.00
2018-09-20T00:45:56.287Z,0.00
2018-09-20T00:46:56.241Z,0.00
2018-09-20T00:48:49.561Z,0.00
2018-09-20T00:49:49.506Z,0.00
2018-09-20T00:51:42.817Z,0.00
2018-09-20T00:52:42.784Z,0.00
2018-09-20T00:54:36.112Z,0.00
2018-09-20T00:55:36.069Z,0.00
2018-09-20T00:57:29.367Z,0.00
2018-09-20T00:58:29.336Z,0.00
2018-09-20T01:00:22.653Z,0.00
2018-09-20T01:01:22.607Z,0.00
2018-09-20T01:03:15.926Z,0.00
2018-09-20T01:04:15.892Z,0.00
2018-09-20T01:06:09.217Z,0.00
2018-09-20T01:07:09.165Z,0.00
2018-09-20T01:09:02.462Z,0.00
2018-09-20T01:10:02.436Z,0.00
2018-09-20T01:11:55.759Z,0.00
2018-09-20T01:12:55.725Z,0.00
2018-09-20T01:14:49.055Z,0.00
2018-09-20T01:15:48.986Z,0.00
2018-09-20T01:17:42.292Z,0.00
2018-09-20T01:18:42.253Z,0.00
2018-09-20T01:20:35.572Z,0.00
2018-09-20T01:21:35.530Z,0.00
2018-09-20T01:23:28.837Z,0.00
2018-09-20T01:24:28.812Z,0.00
2018-09-20T01:26:22.123Z,0.00
2018-09-20T01:27:22.069Z,0.00
2018-09-20T01:29:15.397Z,0.00
2018-09-20T01:30:15.352Z,0.00
2018-09-20T01:32:08.673Z,0.00
2018-09-20T01:33:08.616Z,0.00
2018-09-20T01:35:01.951Z,0.00
2018-09-20T01:36:01.898Z,0.00
2018-09-20T01:37:55.209Z,0.00
2018-09-20T01:38:55.168Z,0.00
2018-09-20T01:40:48.496Z,0.00
2018-09-20T01:41:48.453Z,0.00
2018-09-20T01:43:41.752Z,0.00
2018-09-20T01:44:41.729Z,0.00
2018-09-20T01:46:35.048Z,0.00
2018-09-20T01:47:35.002Z,0.00
2018-09-20T01:49:28.307Z,0.00
2018-09-20T01:50:28.269Z,0.00
2018-09-20T01:52:21.588Z,0.00
2018-09-20T01:53:21.542Z,0.00
2018-09-20T01:55:14.858Z,0.00
2018-09-20T01:56:14.818Z,0.00
2018-09-20T01:58:08.253Z,0.00
2018-09-20T01:59:08.117Z,0.00
2018-09-20T02:01:01.399Z,0.00
2018-09-20T02:02:01.382Z,0.00
2018-09-20T02:03:54.688Z,0.00
2018-09-20T02:04:54.689Z,0.00
2018-09-20T02:06:47.968Z,0.00
2018-09-20T02:07:47.924Z,0.00
2018-09-20T02:09:41.225Z,0.00
2018-09-20T02:10:41.199Z,0.00
2018-09-20T02:12:34.519Z,0.00
2018-09-20T02:13:34.476Z,0.00
2018-09-20T02:15:27.798Z,0.00
2018-09-20T02:16:27.755Z,0.00
2018-09-20T02:18:21.075Z,0.00
2018-09-20T02:19:21.030Z,0.00
2018-09-20T02:21:14.336Z,0.00
2018-09-20T02:22:14.304Z,0.00
2018-09-20T02:24:07.626Z,0.00
2018-09-20T02:25:07.575Z,0.00
2018-09-20T02:27:00.909Z,0.00
2018-09-20T02:28:00.862Z,0.00
2018-09-20T02:29:54.165Z,0.00
2018-09-20T02:30:54.135Z,0.00
2018-09-20T02:32:47.574Z,0.00
2018-09-20T02:33:47.405Z,0.00
2018-09-20T02:35:40.724Z,0.00
2018-09-20T02:36:40.686Z,0.00
2018-09-20T02:38:34.022Z,0.00
2018-09-20T02:39:33.965Z,0.00
2018-09-20T02:41:27.277Z,0.00
2018-09-20T02:42:27.243Z,0.00
2018-09-20T02:44:20.565Z,0.00
2018-09-20T02:45:20.503Z,0.00
2018-09-20T02:47:13.825Z,0.00
2018-09-20T02:48:13.801Z,0.00
2018-09-20T02:50:07.112Z,0.00
2018-09-20T02:51:07.067Z,0.00
2018-09-20T02:53:00.378Z,0.00
2018-09-20T02:54:00.341Z,0.00
2018-09-20T02:55:53.681Z,0.00
2018-09-20T02:56:53.619Z,0.00
2018-09-20T02:58:46.976Z,0.00
2018-09-20T02:59:46.893Z,0.00
2018-09-20T03:01:40.196Z,0.00
2018-09-20T03:02:40.176Z,0.00
2018-09-20T03:04:33.468Z,0.00
2018-09-20T03:05:33.432Z,0.00
2018-09-20T03:07:26.751Z,0.00
2018-09-20T03:08:26.701Z,0.00
2018-09-20T03:10:20.037Z,0.00
2018-09-20T03:11:19.992Z,0.00
2018-09-20T03:13:13.307Z,0.00
2018-09-20T03:14:13.278Z,0.00
2018-09-20T03:16:06.584Z,0.00
2018-09-20T03:17:06.553Z,0.00
2018-09-20T03:18:59.863Z,0.00
2018-09-20T03:19:59.827Z,0.00
2018-09-20T03:21:53.153Z,0.00
2018-09-20T03:22:53.106Z,0.00
2018-09-20T03:24:46.441Z,0.00
2018-09-20T03:25:46.372Z,0.00
2018-09-20T03:27:39.696Z,0.00
2018-09-20T03:28:39.662Z,0.00
2018-09-20T03:30:33.033Z,0.00
2018-09-20T03:31:32.946Z,0.00
2018-09-20T03:33:26.257Z,0.00
2018-09-20T03:34:26.203Z,0.00
2018-09-20T03:36:19.523Z,0.00
2018-09-20T03:37:19.502Z,0.00
2018-09-20T03:39:12.798Z,0.00
2018-09-20T03:40:12.759Z,0.00
2018-09-20T03:42:06.064Z,0.00
2018-09-20T03:43:06.024Z,0.00
2018-09-20T03:44:59.341Z,0.00
2018-09-20T03:45:59.296Z,0.00
2018-09-20T03:47:52.102Z,0.00
2018-09-20T03:48:52.069Z,0.00
2018-09-20T03:50:45.404Z,0.00
2018-09-20T03:51:45.363Z,0.00
2018-09-20T03:53:38.669Z,0.00
2018-09-20T03:54:38.658Z,0.00
2018-09-20T03:56:31.950Z,0.00
2018-09-20T03:57:31.909Z,0.00
2018-09-20T03:59:25.218Z,0.00
2018-09-20T04:00:25.174Z,0.00
2018-09-20T04:02:18.503Z,0.00
2018-09-20T04:03:18.459Z,0.00
2018-09-20T04:05:11.792Z,0.00
2018-09-20T04:06:11.763Z,0.00
2018-09-20T04:08:05.078Z,0.00
2018-09-20T04:09:05.028Z,0.00
2018-09-20T04:10:58.363Z,0.00
2018-09-20T04:11:58.328Z,0.00
2018-09-20T04:13:51.645Z,0.00
2018-09-20T04:14:51.582Z,0.00
2018-09-20T04:16:44.430Z,0.00
2018-09-20T04:17:44.379Z,0.00
2018-09-20T04:19:37.678Z,0.00
2018-09-20T04:20:37.640Z,0.00
2018-09-20T04:22:30.463Z,0.00
2018-09-20T04:23:30.414Z,0.00
2018-09-20T04:25:23.724Z,0.00
2018-09-20T04:26:23.693Z,0.00
2018-09-20T04:28:17.021Z,0.00
2018-09-20T04:29:16.966Z,0.00
2018-09-20T04:31:09.794Z,0.00
2018-09-20T04:32:09.742Z,0.00
2018-09-20T04:34:03.057Z,0.00
2018-09-20T04:35:03.004Z,0.00
2018-09-20T04:36:56.333Z,0.00
2018-09-20T04:37:56.279Z,0.00
2018-09-20T04:39:49.576Z,0.00
2018-09-20T04:40:49.546Z,0.00
2018-09-20T04:42:42.862Z,0.00
2018-09-20T04:43:42.824Z,0.00
2018-09-20T04:45:36.131Z,0.00
2018-09-20T04:46:36.097Z,0.00
2018-09-20T04:48:29.401Z,0.00
2018-09-20T04:49:29.354Z,0.00
2018-09-20T04:51:22.170Z,0.00
2018-09-20T04:52:22.130Z,4.00
2018-09-20T04:54:15.462Z,0.00
2018-09-20T04:55:15.407Z,4.00
2018-09-20T04:57:08.248Z,4.00
2018-09-20T04:58:08.189Z,8.00
2018-09-20T05:00:01.577Z,8.00
2018-09-20T05:01:01.470Z,12.00
2018-09-20T05:02:54.287Z,12.00
2018-09-20T05:03:54.251Z,12.00
2018-09-20T05:05:47.552Z,16.00
2018-09-20T05:06:47.506Z,20.00
2018-09-20T05:08:40.839Z,24.00
2018-09-20T05:09:40.781Z,28.00
2018-09-20T05:11:33.602Z,36.00
2018-09-20T05:12:33.566Z,40.00
2018-09-20T05:14:26.386Z,52.00
2018-09-20T05:15:26.341Z,52.00
2018-09-20T05:17:19.646Z,64.00
2018-09-20T05:18:19.611Z,68.00
2018-09-20T05:20:13.015Z,84.00
2018-09-20T05:21:12.961Z,92.00
2018-09-20T05:23:06.251Z,112.00
2018-09-20T05:24:06.211Z,120.00
2018-09-20T05:25:59.513Z,140.00
2018-09-20T05:26:59.477Z,152.00
2018-09-20T05:28:52.793Z,176.00
2018-09-20T05:29:52.736Z,192.00
2018-09-20T05:31:46.052Z,224.00
2018-09-20T05:32:46.012Z,240.00
2018-09-20T05:34:39.339Z,276.00
2018-09-20T05:35:39.325Z,296.00
2018-09-20T05:37:32.599Z,324.00
2018-09-20T05:38:32.573Z,336.00
2018-09-20T05:40:25.402Z,356.00
2018-09-20T05:41:25.357Z,360.00
2018-09-20T05:43:18.664Z,368.00
2018-09-20T05:44:18.623Z,376.00
2018-09-20T05:46:11.939Z,392.00
2018-09-20T05:47:11.892Z,404.00
2018-09-20T05:49:05.214Z,440.00
2018-09-20T05:50:05.158Z,452.00
2018-09-20T05:51:57.982Z,472.00
2018-09-20T05:52:57.938Z,476.00
2018-09-20T05:54:51.267Z,496.00
2018-09-20T05:55:51.218Z,516.00
2018-09-20T05:57:44.519Z,572.00
2018-09-20T05:58:44.482Z,604.00
2018-09-20T06:00:37.414Z,668.00
2018-09-20T06:01:37.257Z,692.00
2018-09-20T06:03:30.569Z,720.00
2018-09-20T06:04:30.535Z,740.00
2018-09-20T06:06:25.714Z,768.00
2018-09-20T06:07:25.670Z,788.00
2018-09-20T06:09:18.994Z,820.00
2018-09-20T06:10:18.953Z,828.00
2018-09-20T06:12:12.324Z,832.00
2018-09-20T06:13:12.279Z,832.00
2018-09-20T06:15:05.539Z,860.00
2018-09-20T06:16:05.491Z,888.00
2018-09-20T06:17:58.308Z,912.00
2018-09-20T06:18:58.268Z,924.00
2018-09-20T06:20:51.599Z,940.00
2018-09-20T06:21:51.605Z,944.00
2018-09-20T06:23:44.845Z,948.00
2018-09-20T06:24:44.822Z,940.00
2018-09-20T06:26:38.145Z,956.00
2018-09-20T06:27:38.140Z,1012.00
2018-09-20T06:29:31.395Z,1160.00
2018-09-20T06:30:31.360Z,1248.00
2018-09-20T06:32:24.200Z,1352.00
2018-09-20T06:33:24.154Z,1352.00
2018-09-20T06:35:17.570Z,1568.00
2018-09-20T06:36:17.434Z,1588.00
2018-09-20T06:38:10.747Z,1496.00
2018-09-20T06:39:10.714Z,1368.00
2018-09-20T06:41:04.088Z,1420.00
2018-09-20T06:42:03.993Z,1364.00
2018-09-20T06:43:57.289Z,1276.00
2018-09-20T06:44:57.250Z,1416.00
2018-09-20T06:46:50.571Z,1528.00
2018-09-20T06:47:50.535Z,1156.00
2018-09-20T06:49:43.834Z,1012.00
2018-09-20T06:50:43.806Z,1020.00
2018-09-20T06:52:37.120Z,1024.00
2018-09-20T06:53:37.075Z,980.00
2018-09-20T06:55:30.390Z,980.00
2018-09-20T06:56:30.396Z,944.00
2018-09-20T06:58:23.680Z,1016.00
2018-09-20T06:59:23.625Z,1160.00
2018-09-20T07:01:16.947Z,1252.00
2018-09-20T07:02:16.906Z,1268.00
2018-09-20T07:04:10.220Z,1412.00
2018-09-20T07:05:10.191Z,1576.00
2018-09-20T07:07:03.521Z,1812.00
2018-09-20T07:08:03.466Z,1896.00
2018-09-20T07:09:56.786Z,2068.00
2018-09-20T07:10:56.746Z,2108.00
2018-09-20T07:12:50.062Z,2204.00
2018-09-20T07:13:50.131Z,2264.00
2018-09-20T07:15:43.332Z,2168.00
2018-09-20T07:16:43.301Z,1976.00
2018-09-20T07:18:36.618Z,2004.00
2018-09-20T07:19:36.567Z,2076.00
2018-09-20T07:21:29.881Z,2272.00
2018-09-20T07:22:29.846Z,2296.00
2018-09-20T07:24:23.182Z,2024.00
2018-09-20T07:25:23.232Z,2060.00
2018-09-20T07:27:16.462Z,2116.00
2018-09-20T07:28:16.432Z,2184.00
2018-09-20T07:30:09.749Z,2188.00
2018-09-20T07:31:09.718Z,2028.00
2018-09-20T07:33:03.037Z,1792.00
2018-09-20T07:34:02.988Z,1828.00
2018-09-20T07:35:56.294Z,1780.00
2018-09-20T07:36:56.272Z,1952.00
2018-09-20T07:38:49.602Z,2368.00
2018-09-20T07:39:49.549Z,2340.00
2018-09-20T07:41:42.872Z,1864.00
2018-09-20T07:42:42.824Z,1924.00
2018-09-20T07:44:36.153Z,2116.00
2018-09-20T07:45:36.107Z,2128.00
2018-09-20T07:47:29.445Z,2132.00
2018-09-20T07:48:29.382Z,2124.00
2018-09-20T07:50:22.696Z,2140.00
2018-09-20T07:51:22.659Z,2152.00
2018-09-20T07:53:16.009Z,2184.00
2018-09-20T07:54:15.952Z,2220.00
2018-09-20T07:56:09.248Z,2256.00
2018-09-20T07:57:09.217Z,2248.00
2018-09-20T07:59:02.546Z,2252.00
2018-09-20T08:00:02.505Z,2260.00
2018-09-20T08:01:55.866Z,2276.00
2018-09-20T08:02:55.780Z,2296.00
2018-09-20T08:04:49.098Z,2328.00
2018-09-20T08:05:49.063Z,2364.00
2018-09-20T08:07:42.379Z,2400.00
2018-09-20T08:08:42.333Z,2416.00
2018-09-20T08:10:35.639Z,2456.00
2018-09-20T08:11:35.615Z,2464.00
2018-09-20T08:13:28.444Z,2492.00
2018-09-20T08:14:28.400Z,2500.00
2018-09-20T08:16:21.703Z,2520.00
2018-09-20T08:17:21.680Z,2536.00
2018-09-20T08:19:15.015Z,2580.00
2018-09-20T08:20:14.955Z,2628.00
2018-09-20T08:22:08.255Z,2756.00
2018-09-20T08:23:08.231Z,2832.00
2018-09-20T08:25:01.549Z,2880.00
2018-09-20T08:26:01.513Z,2944.00
2018-09-20T08:27:54.928Z,3056.00
2018-09-20T08:28:54.790Z,3064.00
2018-09-20T08:30:48.114Z,3364.00
2018-09-20T08:31:48.069Z,3692.00
2018-09-20T08:33:41.399Z,4092.00
2018-09-20T08:34:41.339Z,3964.00
2018-09-20T08:36:34.656Z,4436.00
2018-09-20T08:37:34.669Z,4536.00
2018-09-20T08:39:27.959Z,5068.00
2018-09-20T08:40:27.915Z,5520.00
2018-09-20T08:42:21.272Z,5324.00
2018-09-20T08:43:21.191Z,5352.00
2018-09-20T08:45:14.523Z,5168.00
2018-09-20T08:46:14.480Z,5832.00
2018-09-20T08:48:07.826Z,5504.00
2018-09-20T08:49:07.795Z,5728.00
2018-09-20T08:51:01.173Z,5480.00
2018-09-20T08:52:01.097Z,5152.00
2018-09-20T08:53:54.425Z,5220.00
2018-09-20T08:54:54.375Z,5444.00
2018-09-20T08:56:47.799Z,5428.00
2018-09-20T08:57:47.687Z,4256.00
2018-09-20T08:59:41.043Z,3452.00
2018-09-20T09:00:41.008Z,3864.00
2018-09-20T09:02:34.311Z,5384.00
2018-09-20T09:03:34.275Z,5200.00
2018-09-20T09:05:27.631Z,5044.00
2018-09-20T09:06:27.585Z,4008.00
2018-09-20T09:08:20.921Z,4752.00
2018-09-20T09:09:20.878Z,4840.00
2018-09-20T09:11:15.201Z,3968.00
2018-09-20T09:12:15.181Z,4064.00
2018-09-20T09:14:08.573Z,4816.00
2018-09-20T09:15:08.463Z,5456.00
2018-09-20T09:17:01.854Z,5528.00
2018-09-20T09:18:01.804Z,5876.00
2018-09-20T09:19:55.126Z,5836.00
2018-09-20T09:20:55.078Z,6084.00
2018-09-20T09:22:48.420Z,5804.00
2018-09-20T09:23:48.381Z,5956.00
2018-09-20T09:25:41.691Z,5500.00
2018-09-20T09:26:41.643Z,6824.00
2018-09-20T09:28:35.039Z,6472.00
2018-09-20T09:29:34.946Z,5936.00
2018-09-20T09:31:28.260Z,7116.00
2018-09-20T09:32:28.229Z,6004.00
2018-09-20T09:34:21.557Z,6100.00
2018-09-20T09:35:21.524Z,6276.00
2018-09-20T09:37:14.851Z,6624.00
2018-09-20T09:38:14.812Z,7760.00
2018-09-20T09:40:08.134Z,7492.00
2018-09-20T09:41:08.108Z,8924.00
2018-09-20T09:43:01.423Z,5912.00
2018-09-20T09:44:01.389Z,6404.00
2018-09-20T09:45:54.707Z,7244.00
2018-09-20T09:46:54.674Z,8036.00
2018-09-20T09:48:48.052Z,35424.00
2018-09-20T09:49:47.969Z,82624.00
2018-09-20T09:51:41.299Z,92832.00
2018-09-20T09:52:41.254Z,89376.00
2018-09-20T09:54:34.640Z,94240.00
2018-09-20T09:55:34.564Z,93184.00
2018-09-20T09:57:27.903Z,90528.00
2018-09-20T09:58:27.860Z,81888.00
2018-09-20T10:00:21.198Z,71936.00
2018-09-20T10:01:21.166Z,71264.00
2018-09-20T10:03:14.504Z,68224.00
2018-09-20T10:04:14.479Z,76064.00
2018-09-20T10:06:07.793Z,68640.00
2018-09-20T10:07:07.788Z,72544.00
2018-09-20T10:09:01.129Z,39360.00
2018-09-20T10:10:01.079Z,48672.00
2018-09-20T10:11:54.409Z,53568.00
2018-09-20T10:12:54.400Z,54496.00
2018-09-20T10:14:47.722Z,42240.00
2018-09-20T10:15:47.690Z,34784.00
2018-09-20T10:17:41.021Z,30144.00
2018-09-20T10:18:40.997Z,29760.00
2018-09-20T10:20:34.330Z,37728.00
2018-09-20T10:21:34.310Z,33632.00
2018-09-20T10:23:27.634Z,35136.00
2018-09-20T10:24:27.615Z,33216.00
2018-09-20T10:26:20.936Z,33984.00
2018-09-20T10:27:20.914Z,32704.00
2018-09-20T10:29:14.259Z,27488.00
2018-09-20T10:30:14.217Z,31392.00
2018-09-20T10:32:07.541Z,36224.00
2018-09-20T10:33:07.520Z,36352.00
2018-09-20T10:35:00.881Z,30976.00
2018-09-20T10:36:00.847Z,37120.00
2018-09-20T10:37:54.192Z,36672.00
2018-09-20T10:38:54.165Z,37472.00
2018-09-20T10:40:47.517Z,34848.00
2018-09-20T10:41:47.472Z,30912.00
2018-09-20T10:43:40.807Z,20608.00
2018-09-20T10:44:40.777Z,29120.00
2018-09-20T10:46:34.117Z,30016.00
2018-09-20T10:47:34.092Z,27264.00
2018-09-20T10:49:28.451Z,27584.00
2018-09-20T10:50:28.411Z,37824.00
2018-09-20T10:52:21.760Z,35424.00
2018-09-20T10:53:21.721Z,32032.00
2018-09-20T10:55:15.132Z,36416.00
2018-09-20T10:56:15.033Z,34208.00
2018-09-20T10:58:08.393Z,26560.00
2018-09-20T10:59:08.381Z,30272.00
2018-09-20T11:01:01.809Z,28064.00
2018-09-20T11:02:01.683Z,35840.00
2018-09-20T11:03:56.024Z,32672.00
2018-09-20T11:04:56.002Z,29408.00
2018-09-20T11:06:49.382Z,32512.00
2018-09-20T11:07:49.316Z,38592.00
2018-09-20T11:09:42.672Z,38336.00
2018-09-20T11:10:42.690Z,38656.00
2018-09-20T11:12:36.015Z,38528.00
2018-09-20T11:13:35.975Z,31712.00
2018-09-20T11:15:29.329Z,26496.00
2018-09-20T11:16:29.274Z,32128.00
2018-09-20T11:18:22.608Z,12360.00
2018-09-20T11:19:22.590Z,10428.00
2018-09-20T11:21:16.987Z,10124.00
2018-09-20T11:22:16.923Z,15108.00
2018-09-20T11:24:10.232Z,31680.00
2018-09-20T11:25:10.212Z,36864.00
2018-09-20T11:27:03.564Z,36064.00
2018-09-20T11:28:03.621Z,34496.00
2018-09-20T11:29:57.866Z,34560.00
2018-09-20T11:30:57.829Z,33792.00
2018-09-20T11:32:51.193Z,33376.00
2018-09-20T11:33:51.139Z,32640.00
2018-09-20T11:35:44.497Z,31232.00
2018-09-20T11:36:44.487Z,29824.00
2018-09-20T11:38:37.814Z,29984.00
2018-09-20T11:39:37.773Z,29792.00
2018-09-20T11:41:32.118Z,29472.00
2018-09-20T11:42:32.080Z,29088.00
2018-09-20T11:44:25.451Z,21824.00
2018-09-20T11:45:25.395Z,9436.00
2018-09-20T11:47:18.770Z,24608.00
2018-09-20T11:48:18.722Z,25312.00
2018-09-20T11:50:12.065Z,21376.00
2018-09-20T11:51:12.034Z,22944.00
2018-09-20T11:53:05.396Z,21248.00
2018-09-20T11:54:05.334Z,21792.00
2018-09-20T11:55:58.684Z,20928.00
2018-09-20T11:56:58.650Z,20640.00
2018-09-20T11:58:52.021Z,20224.00
2018-09-20T11:59:51.966Z,18880.00
2018-09-20T12:01:45.301Z,16800.00
2018-09-20T12:02:45.271Z,19200.00
2018-09-20T12:04:38.622Z,18880.00
2018-09-20T12:05:38.619Z,18560.00
2018-09-20T12:07:31.971Z,17536.00
2018-09-20T12:08:31.910Z,17440.00
2018-09-20T12:10:26.260Z,14344.00
2018-09-20T12:11:26.232Z,9236.00
2018-09-20T12:13:19.591Z,14776.00
2018-09-20T12:14:19.549Z,12796.00
2018-09-20T12:16:13.905Z,17120.00
2018-09-20T12:17:13.861Z,17248.00
2018-09-20T12:19:07.221Z,16072.00
2018-09-20T12:20:07.243Z,14696.00
2018-09-20T12:22:01.528Z,13984.00
2018-09-20T12:23:01.471Z,12352.00
2018-09-20T12:24:54.846Z,12056.00
2018-09-20T12:25:54.845Z,9424.00
2018-09-20T12:27:48.121Z,10992.00
2018-09-20T12:28:48.085Z,11472.00
2018-09-20T12:30:41.432Z,8944.00
2018-09-20T12:31:41.441Z,9620.00
2018-09-20T12:33:34.743Z,8460.00
2018-09-20T12:34:34.713Z,6868.00
2018-09-20T12:36:28.073Z,6960.00
2018-09-20T12:37:28.036Z,6900.00
2018-09-20T12:39:21.371Z,6608.00
2018-09-20T12:40:21.342Z,6532.00
2018-09-20T12:42:14.667Z,6660.00
2018-09-20T12:43:14.667Z,7356.00
2018-09-20T12:45:08.981Z,7136.00
2018-09-20T12:46:08.937Z,6724.00
2018-09-20T12:48:02.305Z,6304.00
2018-09-20T12:49:02.246Z,6684.00
2018-09-20T12:50:55.594Z,6448.00
2018-09-20T12:51:55.553Z,6560.00
2018-09-20T12:53:48.883Z,6176.00
2018-09-20T12:54:48.959Z,6152.00
2018-09-20T12:56:42.213Z,6040.00
2018-09-20T12:57:42.174Z,5940.00
2018-09-20T12:59:35.503Z,5680.00
2018-09-20T13:00:35.481Z,5812.00
2018-09-20T13:02:28.833Z,5812.00
2018-09-20T13:03:28.774Z,5844.00
2018-09-20T13:05:22.112Z,5672.00
2018-09-20T13:06:22.077Z,5404.00
2018-09-20T13:08:15.394Z,5296.00
2018-09-20T13:09:15.387Z,5840.00
2018-09-20T13:11:08.758Z,5760.00
2018-09-20T13:12:08.689Z,5808.00
2018-09-20T13:14:03.004Z,5540.00
2018-09-20T13:15:02.964Z,5248.00
2018-09-20T13:16:56.312Z,4044.00
2018-09-20T13:17:56.263Z,4808.00
2018-09-20T13:19:50.608Z,4760.00
2018-09-20T13:20:50.569Z,4728.00
2018-09-20T13:22:43.918Z,5388.00
2018-09-20T13:23:43.878Z,5832.00
2018-09-20T13:25:37.235Z,5456.00
2018-09-20T13:26:37.173Z,5392.00
2018-09-20T13:28:30.519Z,5208.00
2018-09-20T13:29:30.478Z,5172.00
2018-09-20T13:31:23.819Z,5152.00
2018-09-20T13:32:23.774Z,6612.00
2018-09-20T13:34:17.089Z,5760.00
2018-09-20T13:35:17.089Z,5532.00
2018-09-20T13:37:11.461Z,4964.00
2018-09-20T13:38:11.360Z,4756.00
2018-09-20T13:40:04.687Z,4604.00
2018-09-20T13:41:04.663Z,4644.00
2018-09-20T13:42:57.990Z,4496.00
2018-09-20T13:43:57.975Z,4988.00
2018-09-20T13:45:51.291Z,5064.00
2018-09-20T13:46:51.260Z,5172.00
2018-09-20T13:48:44.704Z,4776.00
2018-09-20T13:49:44.563Z,4756.00
2018-09-20T13:51:37.934Z,4480.00
2018-09-20T13:52:37.898Z,5676.00
2018-09-20T13:54:31.231Z,7512.00
2018-09-20T13:55:31.198Z,6340.00
2018-09-20T13:57:24.540Z,7268.00
2018-09-20T13:58:24.495Z,7692.00
2018-09-20T14:00:17.848Z,7944.00
2018-09-20T14:01:17.824Z,7912.00
2018-09-20T14:03:11.155Z,7868.00
2018-09-20T14:04:11.110Z,7648.00
2018-09-20T14:06:04.439Z,7680.00
2018-09-20T14:07:04.411Z,7596.00
2018-09-20T14:08:57.752Z,7480.00
2018-09-20T14:09:57.751Z,7420.00
2018-09-20T14:11:51.065Z,7092.00
2018-09-20T14:12:51.015Z,6992.00
2018-09-20T14:14:44.380Z,6788.00
2018-09-20T14:15:44.361Z,6760.00
2018-09-20T14:17:37.691Z,6600.00
2018-09-20T14:18:37.656Z,6524.00
2018-09-20T14:20:30.974Z,6328.00
2018-09-20T14:21:30.961Z,6264.00
2018-09-20T14:23:24.336Z,6224.00
2018-09-20T14:24:24.274Z,6172.00
2018-09-20T14:26:17.604Z,6028.00
2018-09-20T14:27:17.629Z,5980.00
2018-09-20T14:29:10.925Z,5964.00
2018-09-20T14:30:10.889Z,5968.00
2018-09-20T14:32:04.241Z,5904.00
2018-09-20T14:33:04.213Z,5852.00
2018-09-20T14:34:57.555Z,5836.00
2018-09-20T14:35:57.502Z,5812.00
2018-09-20T14:37:50.842Z,5776.00
2018-09-20T14:38:50.813Z,5764.00
2018-09-20T14:40:44.146Z,5680.00
2018-09-20T14:41:44.117Z,5656.00
2018-09-20T14:43:37.456Z,5604.00
2018-09-20T14:44:37.426Z,5552.00
2018-09-20T14:46:30.750Z,5540.00
2018-09-20T14:47:30.755Z,5592.00
2018-09-20T14:49:24.100Z,5180.00
2018-09-20T14:50:24.070Z,5028.00
2018-09-20T14:52:17.396Z,5052.00
2018-09-20T14:53:17.362Z,5020.00
2018-09-20T14:55:11.710Z,4672.00
2018-09-20T14:56:11.664Z,4788.00
2018-09-20T14:58:05.007Z,4976.00
2018-09-20T14:59:05.003Z,4928.00
2018-09-20T15:00:58.328Z,4316.00
2018-09-20T15:01:58.298Z,4828.00
2018-09-20T15:03:51.636Z,4584.00
2018-09-20T15:04:51.597Z,4252.00
2018-09-20T15:06:44.924Z,4140.00
2018-09-20T15:07:44.884Z,4308.00
2018-09-20T15:09:38.253Z,4256.00
2018-09-20T15:10:38.194Z,4308.00
2018-09-20T15:12:31.509Z,4432.00
2018-09-20T15:13:31.509Z,4456.00
2018-09-20T15:15:24.868Z,4624.00
2018-09-20T15:16:24.813Z,4692.00
2018-09-20T15:18:18.152Z,4480.00
2018-09-20T15:19:18.117Z,4516.00
2018-09-20T15:21:11.463Z,4340.00
2018-09-20T15:22:11.434Z,4248.00
2018-09-20T15:24:04.763Z,4396.00
2018-09-20T15:25:04.753Z,4128.00
2018-09-20T15:26:58.063Z,4476.00
2018-09-20T15:27:58.024Z,4308.00
2018-09-20T15:29:51.370Z,4488.00
2018-09-20T15:30:51.345Z,4328.00
2018-09-20T15:32:44.655Z,4308.00
2018-09-20T15:33:44.614Z,4320.00
2018-09-20T15:35:37.951Z,4220.00
2018-09-20T15:36:37.955Z,4336.00
2018-09-20T15:38:31.250Z,4580.00
2018-09-20T15:39:31.240Z,4508.00
2018-09-20T15:41:24.570Z,4404.00
2018-09-20T15:42:24.527Z,4284.00
2018-09-20T15:44:17.850Z,4324.00
2018-09-20T15:45:17.824Z,3832.00
2018-09-20T15:47:11.215Z,3760.00
2018-09-20T15:48:11.126Z,3336.00
2018-09-20T15:50:04.470Z,4136.00
2018-09-20T15:51:04.427Z,4172.00
2018-09-20T15:52:57.765Z,3796.00
2018-09-20T15:53:57.752Z,3332.00
2018-09-20T15:55:51.071Z,3520.00
2018-09-20T15:56:51.035Z,3540.00
2018-09-20T15:58:44.363Z,3772.00
2018-09-20T15:59:44.344Z,3640.00
2018-09-20T16:01:37.663Z,2780.00
2018-09-20T16:02:37.628Z,2668.00
2018-09-20T16:04:30.955Z,2932.00
2018-09-20T16:05:30.928Z,2720.00
2018-09-20T16:07:24.289Z,2436.00
2018-09-20T16:08:24.243Z,2160.00
2018-09-20T16:10:17.562Z,1716.00
2018-09-20T16:11:17.531Z,1564.00
2018-09-20T16:13:10.868Z,1516.00
2018-09-20T16:14:10.833Z,1408.00
2018-09-20T16:16:04.202Z,1472.00
2018-09-20T16:17:04.130Z,1416.00
2018-09-20T16:18:57.463Z,1736.00
2018-09-20T16:19:57.424Z,2072.00
2018-09-20T16:21:50.766Z,1800.00
2018-09-20T16:22:50.726Z,1788.00
2018-09-20T16:24:44.051Z,1820.00
2018-09-20T16:25:44.017Z,1968.00
2018-09-20T16:27:37.359Z,2028.00
2018-09-20T16:28:37.303Z,1800.00
2018-09-20T16:30:30.632Z,1596.00
2018-09-20T16:31:30.630Z,1500.00
2018-09-20T16:33:23.943Z,1624.00
2018-09-20T16:34:23.889Z,1752.00
2018-09-20T16:36:17.217Z,1548.00
2018-09-20T16:37:17.192Z,1428.00
2018-09-20T16:39:10.527Z,1312.00
2018-09-20T16:40:10.493Z,1268.00
2018-09-20T16:42:03.843Z,1176.00
2018-09-20T16:43:03.832Z,1124.00
2018-09-20T16:44:57.157Z,1016.00
2018-09-20T16:45:57.124Z,960.00
2018-09-20T16:47:50.468Z,864.00
2018-09-20T16:48:50.433Z,824.00
2018-09-20T16:50:43.759Z,752.00
2018-09-20T16:51:43.723Z,716.00
2018-09-20T16:53:37.059Z,676.00
2018-09-20T16:54:37.019Z,664.00
2018-09-20T16:56:30.360Z,640.00
2018-09-20T16:57:30.325Z,620.00
2018-09-20T16:59:23.673Z,572.00
2018-09-20T17:00:23.618Z,540.00
2018-09-20T17:02:16.970Z,476.00
2018-09-20T17:03:16.944Z,448.00
2018-09-20T17:05:10.348Z,400.00
2018-09-20T17:06:10.231Z,376.00
2018-09-20T17:08:03.549Z,340.00
2018-09-20T17:09:03.559Z,320.00
2018-09-20T17:10:56.842Z,284.00
2018-09-20T17:11:56.818Z,272.00
2018-09-20T17:13:50.179Z,244.00
2018-09-20T17:14:50.142Z,228.00
2018-09-20T17:16:43.531Z,208.00
2018-09-20T17:17:43.419Z,196.00
2018-09-20T17:19:36.756Z,176.00
2018-09-20T17:20:36.722Z,164.00
2018-09-20T17:22:30.030Z,140.00
2018-09-20T17:23:30.005Z,132.00
2018-09-20T17:25:23.375Z,116.00
2018-09-20T17:26:23.305Z,104.00
2018-09-20T17:28:16.616Z,92.00
2018-09-20T17:29:16.600Z,84.00
2018-09-20T17:31:09.929Z,68.00
2018-09-20T17:32:09.866Z,64.00
2018-09-20T17:34:03.195Z,52.00
2018-09-20T17:35:03.171Z,52.00
2018-09-20T17:36:56.543Z,44.00
2018-09-20T17:37:56.495Z,40.00
2018-09-20T17:39:49.817Z,36.00
2018-09-20T17:40:49.796Z,32.00
2018-09-20T17:42:43.088Z,28.00
2018-09-20T17:43:43.058Z,24.00
2018-09-20T17:45:36.400Z,16.00
2018-09-20T17:46:36.349Z,16.00
2018-09-20T17:48:29.675Z,8.00
2018-09-20T17:49:29.638Z,8.00
2018-09-20T17:51:23.021Z,8.00
2018-09-20T17:52:22.977Z,8.00
2018-09-20T17:54:16.401Z,4.00
2018-09-20T17:55:16.264Z,4.00
2018-09-20T17:57:09.606Z,4.00
2018-09-20T17:58:09.552Z,4.00